Manitou, North Dakota
Current Conditions -  °F | °C
As of 6:35 AM on Friday 31 Oct 2014 (Local Time) from K08D Reporting Station
Overcast Overcast  
Wind Chill: 13°   Ceiling: 1600
Heat Index: 25°   Visibility: 10mi
Dew Point: 25°   Wind: 14mph
Humidity: 100%   Direction: 160°SSE
Pressure: 30.41"   Gusts: NA
Location:  48.3282°N, 102.504°W
Report Text: K08D 311135Z AUTO 16012KT 10SM OVC016 M04/M04 A3041 RMK AO2
Loading
Personal Weather Stations






























Interactive Weather Map
Tropical Storm Tracking
New forecast layout! Learn more

10-Day Weather Forecast

Advertisements
Track Severe Weather on mobile